sensor_id;sensor_type;location;lat;lon;timestamp;pressure;altitude;pressure_sealevel;temperature;humidity
50774;BME280;36745;48.544;8.918;2023-07-31T00:02:19;97443.59;;;13.76;87.58
50774;BME280;36745;48.544;8.918;2023-07-31T00:05:39;97449.25;;;13.73;87.08
50774;BME280;36745;48.544;8.918;2023-07-31T00:08:59;97446.19;;;13.71;87.33
50774;BME280;36745;48.544;8.918;2023-07-31T00:12:20;97446.63;;;13.60;87.77
50774;BME280;36745;48.544;8.918;2023-07-31T00:15:39;97441.22;;;13.57;87.54
50774;BME280;36745;48.544;8.918;2023-07-31T00:18:59;97456.72;;;13.45;88.67
50774;BME280;36745;48.544;8.918;2023-07-31T00:22:19;97456.09;;;13.41;88.41
50774;BME280;36745;48.544;8.918;2023-07-31T00:25:39;97456.06;;;13.32;88.86
50774;BME280;36745;48.544;8.918;2023-07-31T00:28:59;97460.38;;;13.33;88.88
50774;BME280;36745;48.544;8.918;2023-07-31T00:32:19;97456.31;;;13.25;88.93
50774;BME280;36745;48.544;8.918;2023-07-31T00:35:39;97460.91;;;13.19;89.30
50774;BME280;36745;48.544;8.918;2023-07-31T00:38:58;97463.66;;;13.19;89.56
50774;BME280;36745;48.544;8.918;2023-07-31T00:42:18;97465.13;;;13.32;89.27
50774;BME280;36745;48.544;8.918;2023-07-31T00:45:38;97465.81;;;13.15;89.70
50774;BME280;36745;48.544;8.918;2023-07-31T00:48:59;97460.28;;;13.15;89.88
50774;BME280;36745;48.544;8.918;2023-07-31T00:52:18;97462.72;;;13.13;89.41
50774;BME280;36745;48.544;8.918;2023-07-31T00:55:39;97464.81;;;13.09;89.72
50774;BME280;36745;48.544;8.918;2023-07-31T00:58:59;97461.69;;;12.97;90.62
50774;BME280;36745;48.544;8.918;2023-07-31T01:02:18;97452.72;;;12.84;91.64
50774;BME280;36745;48.544;8.918;2023-07-31T01:12:42;97452.53;;;13.10;90.96
50774;BME280;36745;48.544;8.918;2023-07-31T01:16:04;97447.47;;;12.86;91.98
50774;BME280;36745;48.544;8.918;2023-07-31T01:19:26;97437.63;;;12.85;91.97
50774;BME280;36745;48.544;8.918;2023-07-31T01:23:26;97435.53;;;12.89;91.84
50774;BME280;36745;48.544;8.918;2023-07-31T01:26:58;97438.19;;;13.02;91.92
50774;BME280;36745;48.544;8.918;2023-07-31T01:30:25;97432.06;;;13.07;92.30
50774;BME280;36745;48.544;8.918;2023-07-31T01:33:48;97428.50;;;13.07;91.41
50774;BME280;36745;48.544;8.918;2023-07-31T01:37:09;97410.97;;;13.00;91.24
50774;BME280;36745;48.544;8.918;2023-07-31T01:40:29;97423.88;;;12.94;91.33
50774;BME280;36745;48.544;8.918;2023-07-31T01:43:48;97424.75;;;12.91;91.69
50774;BME280;36745;48.544;8.918;2023-07-31T01:47:08;97418.25;;;12.85;91.25
50774;BME280;36745;48.544;8.918;2023-07-31T01:50:28;97415.13;;;12.74;92.21
50774;BME280;36745;48.544;8.918;2023-07-31T01:53:48;97410.91;;;12.60;92.72
50774;BME280;36745;48.544;8.918;2023-07-31T01:57:07;97409.31;;;12.50;93.13
50774;BME280;36745;48.544;8.918;2023-07-31T02:00:27;97416.88;;;12.37;93.49
50774;BME280;36745;48.544;8.918;2023-07-31T02:03:47;97417.03;;;12.34;93.27
50774;BME280;36745;48.544;8.918;2023-07-31T02:07:07;97402.94;;;12.41;92.83
50774;BME280;36745;48.544;8.918;2023-07-31T02:10:26;97398.06;;;12.45;93.54
50774;BME280;36745;48.544;8.918;2023-07-31T02:13:46;97383.22;;;12.51;93.11
50774;BME280;36745;48.544;8.918;2023-07-31T02:17:06;97387.13;;;12.63;92.90
50774;BME280;36745;48.544;8.918;2023-07-31T02:20:26;97375.78;;;12.48;93.27
50774;BME280;36745;48.544;8.918;2023-07-31T02:23:46;97383.13;;;12.20;93.97
50774;BME280;36745;48.544;8.918;2023-07-31T02:27:05;97374.19;;;12.16;93.19
50774;BME280;36745;48.544;8.918;2023-07-31T02:30:25;97382.03;;;11.96;94.53
50774;BME280;36745;48.544;8.918;2023-07-31T02:33:45;97375.78;;;12.05;94.48
50774;BME280;36745;48.544;8.918;2023-07-31T02:37:05;97379.41;;;12.14;94.22
50774;BME280;36745;48.544;8.918;2023-07-31T02:40:24;97379.88;;;12.13;94.25
50774;BME280;36745;48.544;8.918;2023-07-31T02:43:44;97378.44;;;12.08;95.24
50774;BME280;36745;48.544;8.918;2023-07-31T02:47:04;97383.41;;;12.13;94.47
50774;BME280;36745;48.544;8.918;2023-07-31T02:50:24;97386.94;;;12.14;94.62
50774;BME280;36745;48.544;8.918;2023-07-31T02:53:44;97371.13;;;12.14;94.11
50774;BME280;36745;48.544;8.918;2023-07-31T02:57:04;97369.25;;;12.11;94.30
50774;BME280;36745;48.544;8.918;2023-07-31T03:00:24;97377.47;;;12.02;94.79
50774;BME280;36745;48.544;8.918;2023-07-31T03:03:43;97359.09;;;12.08;94.71
50774;BME280;36745;48.544;8.918;2023-07-31T03:07:03;97373.22;;;12.10;94.22
50774;BME280;36745;48.544;8.918;2023-07-31T03:10:23;97362.31;;;12.07;94.36
50774;BME280;36745;48.544;8.918;2023-07-31T03:13:43;97357.66;;;12.04;94.38
50774;BME280;36745;48.544;8.918;2023-07-31T03:17:03;97363.19;;;12.04;94.44
50774;BME280;36745;48.544;8.918;2023-07-31T03:20:22;97356.91;;;12.03;94.76
50774;BME280;36745;48.544;8.918;2023-07-31T03:23:42;97356.00;;;12.06;95.09
50774;BME280;36745;48.544;8.918;2023-07-31T03:27:03;97351.13;;;12.10;95.01
50774;BME280;36745;48.544;8.918;2023-07-31T03:30:23;97355.81;;;12.23;95.05
50774;BME280;36745;48.544;8.918;2023-07-31T03:33:42;97358.34;;;12.30;94.86
50774;BME280;36745;48.544;8.918;2023-07-31T03:37:02;97366.69;;;12.39;95.19
50774;BME280;36745;48.544;8.918;2023-07-31T03:40:24;97362.38;;;12.38;95.02
50774;BME280;36745;48.544;8.918;2023-07-31T03:43:49;97367.25;;;12.34;95.22
50774;BME280;36745;48.544;8.918;2023-07-31T03:47:10;97368.44;;;12.24;95.69
50774;BME280;36745;48.544;8.918;2023-07-31T03:50:30;97365.66;;;12.24;95.22
50774;BME280;36745;48.544;8.918;2023-07-31T03:53:50;97360.31;;;12.29;94.80
50774;BME280;36745;48.544;8.918;2023-07-31T03:57:10;97370.28;;;12.27;95.54
50774;BME280;36745;48.544;8.918;2023-07-31T04:00:30;97368.66;;;12.16;95.92
50774;BME280;36745;48.544;8.918;2023-07-31T04:03:50;97363.34;;;12.22;95.34
50774;BME280;36745;48.544;8.918;2023-07-31T04:07:10;97369.63;;;12.23;95.78
50774;BME280;36745;48.544;8.918;2023-07-31T04:10:30;97365.53;;;12.27;95.34
50774;BME280;36745;48.544;8.918;2023-07-31T04:13:52;97353.59;;;12.30;96.28
50774;BME280;36745;48.544;8.918;2023-07-31T04:17:12;97354.06;;;12.38;95.85
50774;BME280;36745;48.544;8.918;2023-07-31T04:20:31;97350.91;;;12.48;95.88
50774;BME280;36745;48.544;8.918;2023-07-31T04:23:51;97346.34;;;12.54;95.98
50774;BME280;36745;48.544;8.918;2023-07-31T04:27:15;97347.75;;;12.59;95.93
50774;BME280;36745;48.544;8.918;2023-07-31T04:30:35;97359.72;;;12.56;96.29
50774;BME280;36745;48.544;8.918;2023-07-31T04:33:55;97362.03;;;12.57;96.33
50774;BME280;36745;48.544;8.918;2023-07-31T04:37:15;97357.22;;;12.49;96.96
50774;BME280;36745;48.544;8.918;2023-07-31T04:40:35;97362.78;;;12.58;97.05
50774;BME280;36745;48.544;8.918;2023-07-31T04:43:55;97355.44;;;12.64;96.93
50774;BME280;36745;48.544;8.918;2023-07-31T04:47:15;97352.75;;;12.73;96.82
50774;BME280;36745;48.544;8.918;2023-07-31T04:50:35;97356.16;;;12.77;97.39
50774;BME280;36745;48.544;8.918;2023-07-31T04:53:55;97360.16;;;12.85;96.99
50774;BME280;36745;48.544;8.918;2023-07-31T04:57:16;97355.13;;;12.93;97.16
50774;BME280;36745;48.544;8.918;2023-07-31T05:00:35;97357.50;;;13.03;97.71
50774;BME280;36745;48.544;8.918;2023-07-31T05:03:55;97357.72;;;13.18;97.11
50774;BME280;36745;48.544;8.918;2023-07-31T05:07:15;97352.84;;;13.31;97.34
50774;BME280;36745;48.544;8.918;2023-07-31T05:10:36;97352.72;;;13.44;97.34
50774;BME280;36745;48.544;8.918;2023-07-31T05:13:56;97359.81;;;13.54;97.86
50774;BME280;36745;48.544;8.918;2023-07-31T05:17:16;97365.38;;;13.72;97.68
50774;BME280;36745;48.544;8.918;2023-07-31T05:20:36;97346.94;;;13.97;98.02
50774;BME280;36745;48.544;8.918;2023-07-31T05:23:55;97342.75;;;14.19;98.05
50774;BME280;36745;48.544;8.918;2023-07-31T05:27:15;97352.16;;;14.40;97.89
50774;BME280;36745;48.544;8.918;2023-07-31T05:30:38;97359.97;;;14.60;98.04
50774;BME280;36745;48.544;8.918;2023-07-31T05:33:58;97366.34;;;14.93;98.67
50774;BME280;36745;48.544;8.918;2023-07-31T05:37:17;97358.41;;;15.10;97.80
50774;BME280;36745;48.544;8.918;2023-07-31T05:40:37;97360.56;;;15.15;97.45
50774;BME280;36745;48.544;8.918;2023-07-31T05:43:57;97365.09;;;15.36;98.07
50774;BME280;36745;48.544;8.918;2023-07-31T05:47:17;97357.53;;;15.61;98.31
50774;BME280;36745;48.544;8.918;2023-07-31T05:50:37;97354.53;;;15.73;97.40
50774;BME280;36745;48.544;8.918;2023-07-31T05:53:59;97361.88;;;15.62;96.27
50774;BME280;36745;48.544;8.918;2023-07-31T05:57:19;97350.03;;;15.52;96.06
50774;BME280;36745;48.544;8.918;2023-07-31T06:00:40;97340.59;;;15.49;96.06
50774;BME280;36745;48.544;8.918;2023-07-31T06:04:00;97343.44;;;15.40;95.75
50774;BME280;36745;48.544;8.918;2023-07-31T06:07:21;97347.19;;;15.37;96.01
50774;BME280;36745;48.544;8.918;2023-07-31T06:10:41;97335.41;;;15.42;95.95
50774;BME280;36745;48.544;8.918;2023-07-31T06:14:00;97337.81;;;15.49;96.60
50774;BME280;36745;48.544;8.918;2023-07-31T06:17:20;97335.31;;;15.61;97.00
50774;BME280;36745;48.544;8.918;2023-07-31T06:20:40;97341.09;;;15.72;96.90
50774;BME280;36745;48.544;8.918;2023-07-31T06:24:00;97341.94;;;15.87;97.29
50774;BME280;36745;48.544;8.918;2023-07-31T06:27:20;97327.78;;;16.14;97.62
50774;BME280;36745;48.544;8.918;2023-07-31T06:30:40;97327.44;;;16.36;97.77
50774;BME280;36745;48.544;8.918;2023-07-31T06:34:00;97328.25;;;16.66;97.82
50774;BME280;36745;48.544;8.918;2023-07-31T06:37:19;97331.31;;;16.83;96.76
50774;BME280;36745;48.544;8.918;2023-07-31T06:40:39;97325.31;;;17.04;97.24
50774;BME280;36745;48.544;8.918;2023-07-31T06:43:59;97325.59;;;17.06;95.61
50774;BME280;36745;48.544;8.918;2023-07-31T06:47:19;97322.81;;;17.06;95.81
50774;BME280;36745;48.544;8.918;2023-07-31T06:50:38;97330.69;;;17.08;95.51
50774;BME280;36745;48.544;8.918;2023-07-31T06:53:58;97336.03;;;17.11;95.23
50774;BME280;36745;48.544;8.918;2023-07-31T06:57:18;97340.88;;;17.11;94.85
50774;BME280;36745;48.544;8.918;2023-07-31T07:00:38;97333.94;;;17.06;93.98
50774;BME280;36745;48.544;8.918;2023-07-31T07:03:58;97337.22;;;17.05;93.53
50774;BME280;36745;48.544;8.918;2023-07-31T07:07:18;97332.44;;;16.91;91.84
50774;BME280;36745;48.544;8.918;2023-07-31T07:10:37;97337.34;;;16.81;90.12
50774;BME280;36745;48.544;8.918;2023-07-31T07:13:57;97341.31;;;16.60;89.28
50774;BME280;36745;48.544;8.918;2023-07-31T07:17:17;97342.97;;;16.57;87.70
50774;BME280;36745;48.544;8.918;2023-07-31T07:20:37;97335.31;;;16.52;87.03
50774;BME280;36745;48.544;8.918;2023-07-31T07:23:56;97322.75;;;16.57;86.86
50774;BME280;36745;48.544;8.918;2023-07-31T07:27:16;97320.94;;;16.68;86.04
50774;BME280;36745;48.544;8.918;2023-07-31T07:30:36;97313.44;;;16.74;84.55
50774;BME280;36745;48.544;8.918;2023-07-31T07:33:56;97311.91;;;16.88;85.01
50774;BME280;36745;48.544;8.918;2023-07-31T07:41:14;97318.25;;;17.24;84.52
50774;BME280;36745;48.544;8.918;2023-07-31T07:44:34;97318.00;;;17.42;82.93
50774;BME280;36745;48.544;8.918;2023-07-31T07:47:53;97321.50;;;17.57;82.73
50774;BME280;36745;48.544;8.918;2023-07-31T07:51:13;97314.84;;;17.69;81.36
50774;BME280;36745;48.544;8.918;2023-07-31T07:54:33;97309.31;;;17.95;80.42
50774;BME280;36745;48.544;8.918;2023-07-31T07:57:53;97308.81;;;18.17;78.53
50774;BME280;36745;48.544;8.918;2023-07-31T08:01:13;97298.31;;;18.32;78.43
50774;BME280;36745;48.544;8.918;2023-07-31T08:04:33;97289.16;;;18.57;77.69
50774;BME280;36745;48.544;8.918;2023-07-31T08:07:52;97290.84;;;18.75;76.81
50774;BME280;36745;48.544;8.918;2023-07-31T08:11:12;97294.72;;;18.83;73.73
50774;BME280;36745;48.544;8.918;2023-07-31T08:14:32;97284.25;;;18.72;72.13
50774;BME280;36745;48.544;8.918;2023-07-31T08:17:52;97283.84;;;18.91;73.26
50774;BME280;36745;48.544;8.918;2023-07-31T08:21:11;97282.28;;;19.21;72.99
50774;BME280;36745;48.544;8.918;2023-07-31T08:24:31;97281.13;;;19.44;72.38
50774;BME280;36745;48.544;8.918;2023-07-31T08:27:51;97271.34;;;19.65;72.39
50774;BME280;36745;48.544;8.918;2023-07-31T08:31:12;97279.53;;;19.75;70.87
50774;BME280;36745;48.544;8.918;2023-07-31T08:34:31;97281.22;;;19.55;69.14
50774;BME280;36745;48.544;8.918;2023-07-31T08:37:51;97273.25;;;19.43;69.86
50774;BME280;36745;48.544;8.918;2023-07-31T08:41:11;97283.69;;;19.42;69.00
50774;BME280;36745;48.544;8.918;2023-07-31T08:44:33;97279.94;;;19.51;69.45
50774;BME280;36745;48.544;8.918;2023-07-31T08:47:55;97274.09;;;19.54;67.78
50774;BME280;36745;48.544;8.918;2023-07-31T08:51:15;97256.72;;;19.39;67.52
50774;BME280;36745;48.544;8.918;2023-07-31T08:54:35;97260.75;;;19.38;67.01
50774;BME280;36745;48.544;8.918;2023-07-31T08:57:55;97272.09;;;19.18;66.56
50774;BME280;36745;48.544;8.918;2023-07-31T09:01:16;97276.38;;;19.56;67.81
50774;BME280;36745;48.544;8.918;2023-07-31T09:04:36;97257.22;;;19.97;66.11
50774;BME280;36745;48.544;8.918;2023-07-31T09:08:00;97251.72;;;20.47;67.27
50774;BME280;36745;48.544;8.918;2023-07-31T09:11:21;97246.63;;;20.84;66.09
50774;BME280;36745;48.544;8.918;2023-07-31T09:14:45;97227.53;;;20.72;63.81
50774;BME280;36745;48.544;8.918;2023-07-31T09:18:07;97239.00;;;20.63;64.86
50774;BME280;36745;48.544;8.918;2023-07-31T09:21:27;97228.53;;;20.69;64.18
50774;BME280;36745;48.544;8.918;2023-07-31T09:24:47;97226.50;;;20.75;63.38
50774;BME280;36745;48.544;8.918;2023-07-31T09:28:08;97242.31;;;20.67;63.06
50774;BME280;36745;48.544;8.918;2023-07-31T09:31:42;97236.72;;;20.78;63.60
50774;BME280;36745;48.544;8.918;2023-07-31T09:35:04;97244.34;;;20.61;63.07
50774;BME280;36745;48.544;8.918;2023-07-31T09:38:32;97234.16;;;20.46;62.54
50774;BME280;36745;48.544;8.918;2023-07-31T09:41:55;97218.38;;;20.43;62.25
50774;BME280;36745;48.544;8.918;2023-07-31T09:45:15;97215.06;;;20.34;62.45
50774;BME280;36745;48.544;8.918;2023-07-31T09:48:38;97212.47;;;20.30;61.35
50774;BME280;36745;48.544;8.918;2023-07-31T09:51:58;97202.56;;;20.29;61.58
50774;BME280;36745;48.544;8.918;2023-07-31T09:55:19;97198.00;;;20.60;62.41
50774;BME280;36745;48.544;8.918;2023-07-31T09:58:38;97184.22;;;20.84;62.06
50774;BME280;36745;48.544;8.918;2023-07-31T10:01:58;97184.47;;;20.91;60.98
50774;BME280;36745;48.544;8.918;2023-07-31T10:05:19;97171.94;;;21.09;61.79
50774;BME280;36745;48.544;8.918;2023-07-31T10:08:40;97168.34;;;21.25;60.69
50774;BME280;36745;48.544;8.918;2023-07-31T10:12:05;97168.78;;;21.41;59.54
50774;BME280;36745;48.544;8.918;2023-07-31T10:15:29;97151.34;;;21.59;59.57
50774;BME280;36745;48.544;8.918;2023-07-31T10:18:50;97158.50;;;22.01;59.14
50774;BME280;36745;48.544;8.918;2023-07-31T10:22:11;97144.09;;;22.15;57.73
50774;BME280;36745;48.544;8.918;2023-07-31T10:25:31;97144.97;;;22.35;56.76
50774;BME280;36745;48.544;8.918;2023-07-31T10:28:52;97156.06;;;22.22;56.32
50774;BME280;36745;48.544;8.918;2023-07-31T10:32:13;97142.91;;;22.05;56.31
50774;BME280;36745;48.544;8.918;2023-07-31T10:35:33;97144.16;;;22.40;56.94
50774;BME280;36745;48.544;8.918;2023-07-31T10:38:55;97146.91;;;22.75;56.33
50774;BME280;36745;48.544;8.918;2023-07-31T10:42:15;97142.09;;;22.70;55.30
50774;BME280;36745;48.544;8.918;2023-07-31T10:45:41;97136.72;;;22.96;56.02
50774;BME280;36745;48.544;8.918;2023-07-31T10:49:02;97131.56;;;22.76;54.83
50774;BME280;36745;48.544;8.918;2023-07-31T10:52:22;97127.56;;;23.15;54.73
50774;BME280;36745;48.544;8.918;2023-07-31T10:55:46;97115.16;;;23.48;54.33
50774;BME280;36745;48.544;8.918;2023-07-31T10:59:07;97122.44;;;23.56;54.16
50774;BME280;36745;48.544;8.918;2023-07-31T11:02:27;97114.66;;;23.25;51.97
50774;BME280;36745;48.544;8.918;2023-07-31T11:05:59;97111.84;;;23.25;54.00
50774;BME280;36745;48.544;8.918;2023-07-31T11:09:20;97113.72;;;22.98;52.67
50774;BME280;36745;48.544;8.918;2023-07-31T11:12:40;97109.19;;;22.65;52.16
50774;BME280;36745;48.544;8.918;2023-07-31T11:16:00;97117.97;;;22.56;52.87
50774;BME280;36745;48.544;8.918;2023-07-31T11:19:24;97119.25;;;22.55;52.75
50774;BME280;36745;48.544;8.918;2023-07-31T11:22:44;97124.31;;;22.56;52.82
50774;BME280;36745;48.544;8.918;2023-07-31T11:26:05;97118.06;;;22.45;52.88
50774;BME280;36745;48.544;8.918;2023-07-31T11:29:27;97127.97;;;22.22;52.78
50774;BME280;36745;48.544;8.918;2023-07-31T11:32:49;97107.13;;;22.11;52.67
50774;BME280;36745;48.544;8.918;2023-07-31T11:36:20;97114.06;;;22.05;53.73
50774;BME280;36745;48.544;8.918;2023-07-31T11:39:40;97114.06;;;22.05;53.73
50774;BME280;36745;48.544;8.918;2023-07-31T11:43:04;97122.06;;;21.95;53.55
50774;BME280;36745;48.544;8.918;2023-07-31T11:46:24;97117.41;;;22.03;54.40
50774;BME280;36745;48.544;8.918;2023-07-31T11:49:43;97118.22;;;21.93;54.10
50774;BME280;36745;48.544;8.918;2023-07-31T11:53:07;97106.31;;;21.81;54.13
50774;BME280;36745;48.544;8.918;2023-07-31T11:56:28;97099.75;;;21.73;54.59
50774;BME280;36745;48.544;8.918;2023-07-31T11:59:49;97102.97;;;21.83;54.53
50774;BME280;36745;48.544;8.918;2023-07-31T12:03:09;97104.00;;;21.85;55.17
50774;BME280;36745;48.544;8.918;2023-07-31T12:06:33;97082.81;;;21.84;55.48
50774;BME280;36745;48.544;8.918;2023-07-31T12:09:54;97067.97;;;21.89;56.29
50774;BME280;36745;48.544;8.918;2023-07-31T12:13:25;97075.13;;;21.90;57.87
50774;BME280;36745;48.544;8.918;2023-07-31T12:16:45;97073.91;;;21.86;59.50
50774;BME280;36745;48.544;8.918;2023-07-31T12:20:06;97069.50;;;21.90;59.47
50774;BME280;36745;48.544;8.918;2023-07-31T12:23:29;97057.00;;;21.91;59.32
50774;BME280;36745;48.544;8.918;2023-07-31T12:26:49;97046.00;;;21.93;59.31
50774;BME280;36745;48.544;8.918;2023-07-31T12:30:29;97044.00;;;21.88;59.21
50774;BME280;36745;48.544;8.918;2023-07-31T12:33:50;97036.81;;;21.93;59.51
50774;BME280;36745;48.544;8.918;2023-07-31T12:37:10;97039.28;;;22.07;59.69
50774;BME280;36745;48.544;8.918;2023-07-31T12:40:30;97036.69;;;22.09;58.98
50774;BME280;36745;48.544;8.918;2023-07-31T12:43:49;97035.78;;;22.01;58.04
50774;BME280;36745;48.544;8.918;2023-07-31T12:47:09;97015.88;;;21.99;58.22
50774;BME280;36745;48.544;8.918;2023-07-31T12:50:29;97017.09;;;22.04;58.36
50774;BME280;36745;48.544;8.918;2023-07-31T12:53:49;97004.03;;;22.12;58.25
50774;BME280;36745;48.544;8.918;2023-07-31T12:57:09;97000.41;;;22.17;57.71
50774;BME280;36745;48.544;8.918;2023-07-31T13:00:29;96989.34;;;22.00;56.44
50774;BME280;36745;48.544;8.918;2023-07-31T13:03:49;96981.22;;;21.91;56.49
50774;BME280;36745;48.544;8.918;2023-07-31T13:07:09;96983.00;;;21.94;56.22
50774;BME280;36745;48.544;8.918;2023-07-31T13:10:28;96980.19;;;21.94;56.27
50774;BME280;36745;48.544;8.918;2023-07-31T13:13:49;96987.50;;;22.03;56.35
50774;BME280;36745;48.544;8.918;2023-07-31T13:17:09;96988.06;;;22.01;56.22
50774;BME280;36745;48.544;8.918;2023-07-31T13:20:28;96994.19;;;22.00;55.76
50774;BME280;36745;48.544;8.918;2023-07-31T13:23:48;96982.72;;;21.98;55.91
50774;BME280;36745;48.544;8.918;2023-07-31T13:27:08;96985.63;;;21.81;55.28
50774;BME280;36745;48.544;8.918;2023-07-31T13:30:28;96984.13;;;21.80;55.22
50774;BME280;36745;48.544;8.918;2023-07-31T13:33:47;96981.91;;;21.73;54.89
50774;BME280;36745;48.544;8.918;2023-07-31T13:37:07;96992.41;;;21.67;54.84
50774;BME280;36745;48.544;8.918;2023-07-31T13:40:27;96990.56;;;21.75;55.48
50774;BME280;36745;48.544;8.918;2023-07-31T13:43:47;96991.50;;;21.83;55.69
50774;BME280;36745;48.544;8.918;2023-07-31T13:47:07;96991.63;;;21.66;54.72
50774;BME280;36745;48.544;8.918;2023-07-31T13:50:27;96985.13;;;21.53;55.12
50774;BME280;36745;48.544;8.918;2023-07-31T13:53:46;96980.09;;;21.46;54.95
50774;BME280;36745;48.544;8.918;2023-07-31T13:57:06;96980.63;;;21.39;54.80
50774;BME280;36745;48.544;8.918;2023-07-31T14:00:26;96974.56;;;21.34;55.05
50774;BME280;36745;48.544;8.918;2023-07-31T14:03:48;96970.47;;;21.35;55.04
50774;BME280;36745;48.544;8.918;2023-07-31T14:07:08;96977.59;;;21.37;54.67
50774;BME280;36745;48.544;8.918;2023-07-31T14:10:27;96976.84;;;21.36;54.88
50774;BME280;36745;48.544;8.918;2023-07-31T14:13:47;96975.03;;;21.39;54.99
50774;BME280;36745;48.544;8.918;2023-07-31T14:17:07;96970.84;;;21.51;55.32
50774;BME280;36745;48.544;8.918;2023-07-31T14:20:27;96960.41;;;21.51;55.31
50774;BME280;36745;48.544;8.918;2023-07-31T14:23:47;96962.69;;;21.53;55.63
50774;BME280;36745;48.544;8.918;2023-07-31T14:27:06;96966.94;;;21.59;55.55
50774;BME280;36745;48.544;8.918;2023-07-31T14:30:26;96963.06;;;21.68;55.67
50774;BME280;36745;48.544;8.918;2023-07-31T14:33:46;96950.03;;;21.70;55.72
50774;BME280;36745;48.544;8.918;2023-07-31T14:37:06;96946.13;;;21.79;55.45
50774;BME280;36745;48.544;8.918;2023-07-31T14:40:26;96951.75;;;21.79;55.33
50774;BME280;36745;48.544;8.918;2023-07-31T14:43:46;96951.97;;;21.81;55.42
50774;BME280;36745;48.544;8.918;2023-07-31T14:47:05;96952.69;;;21.87;55.70
50774;BME280;36745;48.544;8.918;2023-07-31T14:50:26;96951.34;;;21.94;55.92
50774;BME280;36745;48.544;8.918;2023-07-31T14:53:46;96949.56;;;21.96;55.76
50774;BME280;36745;48.544;8.918;2023-07-31T14:57:07;96939.28;;;22.04;55.94
50774;BME280;36745;48.544;8.918;2023-07-31T15:00:26;96932.06;;;22.09;55.54
50774;BME280;36745;48.544;8.918;2023-07-31T15:03:46;96937.63;;;22.14;55.85
50774;BME280;36745;48.544;8.918;2023-07-31T15:07:06;96935.06;;;22.16;55.79
50774;BME280;36745;48.544;8.918;2023-07-31T15:10:26;96934.59;;;22.12;55.69
50774;BME280;36745;48.544;8.918;2023-07-31T15:13:45;96931.03;;;22.12;55.34
50774;BME280;36745;48.544;8.918;2023-07-31T15:17:05;96927.16;;;22.15;55.59
50774;BME280;36745;48.544;8.918;2023-07-31T15:20:25;96913.63;;;22.13;55.00
50774;BME280;36745;48.544;8.918;2023-07-31T15:23:45;96905.00;;;22.11;54.81
50774;BME280;36745;48.544;8.918;2023-07-31T15:27:05;96905.00;;;22.11;54.76
50774;BME280;36745;48.544;8.918;2023-07-31T15:30:25;96889.44;;;22.10;54.73
50774;BME280;36745;48.544;8.918;2023-07-31T15:33:44;96890.66;;;22.15;54.96
50774;BME280;36745;48.544;8.918;2023-07-31T15:37:04;96879.81;;;22.25;54.72
50774;BME280;36745;48.544;8.918;2023-07-31T15:40:24;96865.88;;;22.38;54.94
50774;BME280;36745;48.544;8.918;2023-07-31T15:43:44;96858.13;;;22.44;54.77
50774;BME280;36745;48.544;8.918;2023-07-31T15:47:04;96861.78;;;22.39;54.30
50774;BME280;36745;48.544;8.918;2023-07-31T15:50:24;96853.72;;;22.30;54.06
50774;BME280;36745;48.544;8.918;2023-07-31T15:53:44;96858.88;;;22.26;54.14
50774;BME280;36745;48.544;8.918;2023-07-31T15:57:04;96852.97;;;22.29;54.21
50774;BME280;36745;48.544;8.918;2023-07-31T16:00:24;96847.03;;;22.33;54.18
50774;BME280;36745;48.544;8.918;2023-07-31T16:03:43;96844.47;;;22.35;54.17
50774;BME280;36745;48.544;8.918;2023-07-31T16:07:03;96846.91;;;22.44;54.49
50774;BME280;36745;48.544;8.918;2023-07-31T16:10:23;96847.78;;;22.52;54.70
50774;BME280;36745;48.544;8.918;2023-07-31T16:13:43;96848.72;;;22.60;54.73
50774;BME280;36745;48.544;8.918;2023-07-31T16:17:03;96846.13;;;22.62;54.40
50774;BME280;36745;48.544;8.918;2023-07-31T16:20:22;96851.81;;;22.56;54.25
50774;BME280;36745;48.544;8.918;2023-07-31T16:23:42;96834.66;;;22.60;54.72
50774;BME280;36745;48.544;8.918;2023-07-31T16:27:02;96836.56;;;22.52;54.26
50774;BME280;36745;48.544;8.918;2023-07-31T16:30:22;96840.00;;;22.45;54.22
50774;BME280;36745;48.544;8.918;2023-07-31T16:33:42;96825.47;;;22.41;54.31
50774;BME280;36745;48.544;8.918;2023-07-31T16:37:02;96817.88;;;22.36;54.28
50774;BME280;36745;48.544;8.918;2023-07-31T16:40:21;96818.88;;;22.19;54.39
50774;BME280;36745;48.544;8.918;2023-07-31T16:43:41;96818.66;;;22.17;55.02
50774;BME280;36745;48.544;8.918;2023-07-31T16:47:01;96819.50;;;22.12;54.94
50774;BME280;36745;48.544;8.918;2023-07-31T16:50:20;96823.66;;;22.06;55.09
50774;BME280;36745;48.544;8.918;2023-07-31T16:53:40;96819.25;;;22.10;54.86
50774;BME280;36745;48.544;8.918;2023-07-31T16:57:00;96812.56;;;22.13;55.29
50774;BME280;36745;48.544;8.918;2023-07-31T17:00:20;96808.19;;;22.18;55.07
50774;BME280;36745;48.544;8.918;2023-07-31T17:03:40;96797.72;;;22.18;55.17
50774;BME280;36745;48.544;8.918;2023-07-31T17:07:00;96791.34;;;22.18;55.31
50774;BME280;36745;48.544;8.918;2023-07-31T17:10:19;96790.59;;;22.17;55.47
50774;BME280;36745;48.544;8.918;2023-07-31T17:13:39;96790.13;;;22.13;55.73
50774;BME280;36745;48.544;8.918;2023-07-31T17:16:59;96774.09;;;22.08;55.76
50774;BME280;36745;48.544;8.918;2023-07-31T17:20:19;96768.28;;;22.06;55.79
50774;BME280;36745;48.544;8.918;2023-07-31T17:23:39;96770.41;;;22.00;55.68
50774;BME280;36745;48.544;8.918;2023-07-31T17:26:58;96785.81;;;21.88;55.68
50774;BME280;36745;48.544;8.918;2023-07-31T17:30:18;96789.00;;;21.79;55.48
50774;BME280;36745;48.544;8.918;2023-07-31T17:33:39;96775.81;;;21.74;55.59
50774;BME280;36745;48.544;8.918;2023-07-31T17:36:59;96772.94;;;21.80;55.86
50774;BME280;36745;48.544;8.918;2023-07-31T17:40:19;96779.59;;;21.76;56.13
50774;BME280;36745;48.544;8.918;2023-07-31T17:43:39;96781.56;;;21.82;56.05
50774;BME280;36745;48.544;8.918;2023-07-31T17:46:59;96784.59;;;21.84;56.09
50774;BME280;36745;48.544;8.918;2023-07-31T17:50:18;96785.19;;;21.76;56.41
50774;BME280;36745;48.544;8.918;2023-07-31T17:53:38;96785.19;;;21.76;56.07